Time;durP1;ratioP1;P1;durP2;ratioP2;P2;SDS_P1;SDS_P2;PMS_P1;PMS_P2;Temp;Humidity;BMP_temperature;BMP_pressure;BME280_temperature;BME280_humidity;BME280_pressure;Samples;Min_cycle;Max_cycle;Signal;HPM_P1;HPM_P2
2022/09/21 00:01:14;;;;;;;13.07;12.38;;;;;;;10.22;100.00;100681.59;5051555;28;20020;-69
2022/09/21 00:03:41;;;;;;;12.98;12.27;;;;;;;10.24;100.00;100683.09;5049239;28;20029;-69
2022/09/21 00:06:12;;;;;;;13.90;13.10;;;;;;;10.15;100.00;100677.97;5052305;28;20082;-70
2022/09/21 00:08:38;;;;;;;13.32;12.63;;;;;;;10.09;100.00;100674.16;5040084;28;20096;-69
2022/09/21 00:11:04;;;;;;;13.05;12.35;;;;;;;10.10;100.00;100674.97;5051642;28;20106;-69
2022/09/21 00:13:32;;;;;;;13.35;12.65;;;;;;;9.93;100.00;100688.25;5051748;28;20388;-70
2022/09/21 00:15:58;;;;;;;13.30;12.60;;;;;;;9.99;100.00;100684.09;5040318;28;20411;-69
2022/09/21 00:18:23;;;;;;;13.20;12.50;;;;;;;9.95;100.00;100685.41;5052195;28;20032;-69
2022/09/21 00:20:51;;;;;;;13.60;12.80;;;;;;;10.06;100.00;100685.09;5051197;28;20120;-69
2022/09/21 00:23:17;;;;;;;13.25;12.55;;;;;;;10.16;100.00;100683.09;5052155;28;20024;-69
2022/09/21 00:25:42;;;;;;;13.27;12.57;;;;;;;10.21;100.00;100686.06;5052300;28;20024;-68
2022/09/21 00:28:08;;;;;;;13.90;13.10;;;;;;;10.14;100.00;100685.09;5052910;28;20032;-70
2022/09/21 00:30:33;;;;;;;13.38;12.68;;;;;;;10.07;100.00;100694.69;5051565;28;20029;-69
2022/09/21 00:32:59;;;;;;;12.32;11.73;;;;;;;10.18;100.00;100691.69;5047108;28;20025;-69
2022/09/21 00:35:24;;;;;;;13.35;12.65;;;;;;;10.17;100.00;100692.69;5044626;28;20384;-68
2022/09/21 00:37:50;;;;;;;13.20;12.50;;;;;;;10.12;100.00;100694.19;5042525;28;20033;-68
2022/09/21 00:40:16;;;;;;;12.75;12.05;;;;;;;10.20;100.00;100700.28;5051580;28;20449;-68
2022/09/21 00:42:41;;;;;;;13.23;12.52;;;;;;;10.15;100.00;100686.72;5043897;28;20083;-70
2022/09/21 00:45:19;;;;;;;13.40;12.70;;;;;;;10.10;100.00;100696.19;5047387;28;20457;-69
2022/09/21 00:47:49;;;;;;;12.93;12.23;;;;;;;10.15;100.00;100694.69;5050657;28;20059;-68
2022/09/21 00:50:22;;;;;;;13.40;12.70;;;;;;;10.24;100.00;100693.69;5051753;28;20059;-68
2022/09/21 00:52:56;;;;;;;14.38;13.50;;;;;;;10.28;100.00;100698.66;5050251;28;20112;-68
2022/09/21 00:55:27;;;;;;;13.10;12.40;;;;;;;10.33;100.00;100693.69;5040101;28;20496;-68
2022/09/21 00:58:02;;;;;;;13.63;12.82;;;;;;;10.14;100.00;100701.00;5051611;28;20033;-68
2022/09/21 01:00:27;;;;;;;13.25;12.55;;;;;;;10.24;100.00;100690.22;5051385;28;20108;-69
2022/09/21 01:03:00;;;;;;;13.23;12.52;;;;;;;10.21;100.00;100693.19;5051204;28;20124;-69
2022/09/21 01:05:26;;;;;;;13.45;12.73;;;;;;;10.27;100.00;100692.53;5050316;28;20025;-69
2022/09/21 01:07:53;;;;;;;12.95;12.25;;;;;;;10.30;100.00;100694.84;5051399;28;20120;-70
2022/09/21 01:10:20;;;;;;;13.10;12.40;;;;;;;10.33;100.00;100688.38;5047345;28;20033;-70
2022/09/21 01:13:15;;;;;;;13.23;12.52;;;;;;;10.36;100.00;100688.06;5051434;28;20033;-70
2022/09/21 01:16:02;;;;;;;13.30;12.60;;;;;;;10.40;100.00;100684.88;5051510;28;20031;-69
2022/09/21 01:18:33;;;;;;;13.57;12.77;;;;;;;10.34;100.00;100687.38;5051427;28;20033;-69
2022/09/21 01:21:20;;;;;;;13.30;12.60;;;;;;;10.27;100.00;100673.97;5051206;28;20029;-69
2022/09/21 01:24:12;;;;;;;14.23;13.43;;;;;;;10.39;100.00;100687.72;5050447;28;20021;-70
2022/09/21 01:27:17;;;;;;;13.00;12.30;;;;;;;10.41;100.00;100683.88;5042414;28;20055;-70
2022/09/21 01:29:55;;;;;;;;;;;;;;;10.45;100.00;100685.22;5048230;28;20487;-69
2022/09/21 01:32:23;;;;;;;12.80;12.10;;;;;;;10.54;100.00;100686.00;5051733;28;19963;-69
2022/09/21 01:35:11;;;;;;;13.52;12.73;;;;;;;10.55;100.00;100689.47;5051173;28;20025;-69
2022/09/21 01:37:55;;;;;;;13.10;12.40;;;;;;;10.47;100.00;100685.84;5046312;28;20028;-68
2022/09/21 01:40:27;;;;;;;12.82;12.15;;;;;;;10.46;100.00;100676.25;5041483;28;20104;-69
2022/09/21 01:42:55;;;;;;;13.00;12.30;;;;;;;10.54;100.00;100680.69;5051140;28;20455;-68
2022/09/21 01:45:29;;;;;;;12.80;12.10;;;;;;;10.55;100.00;100670.91;5050794;28;20111;-69
2022/09/21 01:47:58;;;;;;;;;;;;;;;10.52;100.00;100680.06;5044965;28;20037;-69
2022/09/21 01:50:26;;;;;;;12.93;12.23;;;;;;;10.56;100.00;100678.69;5045172;28;19948;-69
2022/09/21 01:52:58;;;;;;;13.68;12.88;;;;;;;10.55;100.00;100674.41;5046194;28;20060;-69
2022/09/21 01:55:29;;;;;;;13.13;12.43;;;;;;;10.62;100.00;100677.19;5039465;28;20021;-69
2022/09/21 01:58:01;;;;;;;13.50;12.75;;;;;;;10.55;100.00;100684.19;5038869;28;20109;-70
2022/09/21 02:00:29;;;;;;;13.13;12.43;;;;;;;10.69;100.00;100686.13;5048854;28;20445;-70
2022/09/21 02:03:03;;;;;;;13.20;12.50;;;;;;;10.61;100.00;100684.31;5051013;28;20092;-69
2022/09/21 02:05:29;;;;;;;13.75;12.95;;;;;;;10.73;100.00;100690.09;5039710;28;20458;-70
2022/09/21 02:07:55;;;;;;;13.13;12.43;;;;;;;10.57;100.00;100685.66;5051450;28;20049;-68
2022/09/21 02:10:29;;;;;;;13.20;12.50;;;;;;;10.59;100.00;100691.63;5049788;28;20029;-68
2022/09/21 02:13:00;;;;;;;13.43;12.67;;;;;;;10.59;100.00;100690.81;5053938;28;20029;-68
2022/09/21 02:15:51;;;;;;;14.02;13.23;;;;;;;10.63;100.00;100684.16;5054404;28;20028;-68
2022/09/21 02:18:41;;;;;;;12.98;12.27;;;;;;;10.53;100.00;100687.00;5051549;28;20068;-68
2022/09/21 02:21:24;;;;;;;13.10;12.40;;;;;;;10.56;100.00;100688.47;5052998;28;20043;-69
2022/09/21 02:24:02;;;;;;;13.27;12.57;;;;;;;10.41;100.00;100689.19;5054574;28;20090;-69
2022/09/21 02:27:03;;;;;;;13.23;12.52;;;;;;;10.33;100.00;100680.44;5054399;28;20366;-70
2022/09/21 02:29:53;;;;;;;13.75;12.95;;;;;;;10.28;100.00;100688.06;5021919;28;20025;-69
2022/09/21 02:32:33;;;;;;;13.13;12.43;;;;;;;10.28;100.00;100682.75;5044726;28;20037;-69
2022/09/21 02:35:14;;;;;;;13.70;12.90;;;;;;;10.19;100.00;100676.59;5054352;28;20028;-69
2022/09/21 02:37:47;;;;;;;13.25;12.55;;;;;;;10.15;100.00;100684.09;5049905;28;20109;-69
2022/09/21 02:40:42;;;;;;;12.70;12.00;;;;;;;10.16;100.00;100679.59;5054181;28;20519;-70
2022/09/21 02:43:20;;;;;;;;;;;;;;;10.19;100.00;100684.56;5054906;28;20396;-69
2022/09/21 02:45:55;;;;;;;13.15;12.45;;;;;;;10.14;100.00;100685.09;5054037;28;19995;-70
2022/09/21 02:48:49;;;;;;;13.05;12.35;;;;;;;10.16;100.00;100683.09;5051728;28;20041;-70
2022/09/21 02:51:28;;;;;;;13.00;12.30;;;;;;;10.24;100.00;100688.41;5050725;28;20040;-70
2022/09/21 02:53:55;;;;;;;12.80;12.13;;;;;;;10.16;100.00;100680.44;5049005;28;20024;-69
2022/09/21 02:56:22;;;;;;;12.45;11.85;;;;;;;10.19;100.00;100690.69;5051580;28;20054;-70
2022/09/21 02:58:55;;;;;;;13.10;12.40;;;;;;;10.16;100.00;100691.03;5053917;28;20032;-70
2022/09/21 03:01:23;;;;;;;13.60;12.85;;;;;;;10.21;100.00;100683.41;5053715;28;20025;-70
2022/09/21 03:03:48;;;;;;;13.25;12.55;;;;;;;10.23;100.00;100675.31;5050473;28;20029;-70
2022/09/21 03:06:13;;;;;;;12.68;12.07;;;;;;;10.21;100.00;100677.28;5044306;28;20074;-68
2022/09/21 03:08:40;;;;;;;13.50;12.80;;;;;;;10.26;100.00;100682.91;5051079;28;20473;-68
2022/09/21 03:11:06;;;;;;;15.50;14.50;;;;;;;10.23;100.00;100683.28;5052386;28;20515;-69
2022/09/21 03:13:32;;;;;;;12.70;12.00;;;;;;;10.34;100.00;100687.38;5040583;28;20854;-69
2022/09/21 03:16:02;;;;;;;12.73;12.02;;;;;;;10.32;100.00;100684.91;5053634;28;20025;-71
2022/09/21 03:18:28;;;;;;;12.98;12.27;;;;;;;10.29;100.00;100687.06;5053419;28;20021;-70
2022/09/21 03:20:54;;;;;;;12.45;11.85;;;;;;;10.30;100.00;100684.25;5045153;28;20113;-69
2022/09/21 03:23:19;;;;;;;13.10;12.40;;;;;;;10.28;100.00;100682.75;5051781;28;20017;-69
2022/09/21 03:25:45;;;;;;;12.98;12.27;;;;;;;10.32;100.00;100681.44;5052453;28;20028;-69
2022/09/21 03:28:12;;;;;;;12.80;12.20;;;;;;;10.28;100.00;100674.78;5053536;28;20021;-69
2022/09/21 03:30:38;;;;;;;12.98;12.27;;;;;;;10.40;100.00;100682.22;5053386;28;20064;-69
2022/09/21 03:33:04;;;;;;;13.25;12.55;;;;;;;10.44;100.00;100677.44;5053304;28;20430;-68
2022/09/21 03:35:32;;;;;;;13.05;12.35;;;;;;;10.37;100.00;100673.81;5052959;28;20079;-69
2022/09/21 03:37:59;;;;;;;12.50;11.90;;;;;;;10.44;100.00;100677.44;5052096;28;20540;-70
2022/09/21 03:40:26;;;;;;;13.10;12.40;;;;;;;10.42;100.00;100669.63;5051081;28;20472;-70
2022/09/21 03:42:52;;;;;;;13.02;12.32;;;;;;;10.49;100.00;100681.19;5049376;28;20360;-70
2022/09/21 03:45:18;;;;;;;14.45;13.55;;;;;;;10.85;100.00;100688.72;5039828;28;20032;-69
2022/09/21 03:47:43;;;;;;;13.70;12.90;;;;;;;10.90;100.00;100682.91;5042892;28;20055;-68
2022/09/21 03:50:09;;;;;;;13.77;12.98;;;;;;;10.95;100.00;100683.22;5053369;28;20310;-68
2022/09/21 03:52:36;;;;;;;14.35;13.48;;;;;;;10.99;100.00;100685.31;5049415;28;20078;-68
2022/09/21 03:55:05;;;;;;;12.55;11.95;;;;;;;11.19;100.00;100688.38;5051337;28;20102;-69
2022/09/21 03:57:31;;;;;;;13.50;12.70;;;;;;;10.90;100.00;100683.72;5052318;28;20049;-69
2022/09/21 03:59:57;;;;;;;13.35;12.57;;;;;;;10.99;100.00;100695.13;5052367;28;20096;-69
2022/09/21 04:02:22;;;;;;;13.10;12.40;;;;;;;10.97;100.00;100699.78;5039672;28;20025;-69
2022/09/21 04:04:48;;;;;;;13.57;12.80;;;;;;;11.16;100.00;100698.50;5039393;28;20112;-70
2022/09/21 04:07:14;;;;;;;14.15;13.32;;;;;;;11.14;100.00;100708.50;5039136;28;20515;-68
2022/09/21 04:09:40;;;;;;;14.93;14.02;;;;;;;10.89;100.00;100707.78;5045058;28;20507;-69
2022/09/21 04:12:06;;;;;;;13.90;13.10;;;;;;;10.93;100.00;100704.59;5051054;28;20139;-70
2022/09/21 04:14:33;;;;;;;13.20;12.50;;;;;;;10.86;100.00;100700.16;5039712;28;20045;-69
2022/09/21 04:16:58;;;;;;;13.98;13.18;;;;;;;11.00;100.00;100705.56;5041036;28;20074;-69
2022/09/21 04:19:24;;;;;;;13.32;12.63;;;;;;;10.99;100.00;100711.03;5047225;28;20448;-69
2022/09/21 04:21:54;;;;;;;12.90;12.20;;;;;;;10.97;100.00;100708.56;5052159;28;20033;-68
2022/09/21 04:24:20;;;;;;;13.02;12.32;;;;;;;10.99;100.00;100716.34;5044573;28;20028;-70
2022/09/21 04:26:46;;;;;;;12.95;12.25;;;;;;;10.98;100.00;100712.06;5048408;28;20025;-70
2022/09/21 04:29:15;;;;;;;13.43;12.70;;;;;;;10.97;100.00;100702.44;5048441;28;20483;-69
2022/09/21 04:31:41;;;;;;;13.25;12.55;;;;;;;10.94;100.00;100713.38;5050436;28;20020;-68
2022/09/21 04:34:10;;;;;;;13.48;12.77;;;;;;;10.99;100.00;100719.00;5051928;28;20054;-68
2022/09/21 04:36:36;;;;;;;13.35;12.65;;;;;;;11.07;100.00;100721.63;5046158;28;20055;-69
2022/09/21 04:39:03;;;;;;;16.23;15.13;;;;;;;11.02;100.00;100724.00;5039283;28;20064;-67
2022/09/21 04:41:28;;;;;;;14.10;13.30;;;;;;;11.09;100.00;100724.97;5055943;28;20071;-69
2022/09/21 04:43:54;;;;;;;13.50;12.73;;;;;;;11.17;100.00;100727.56;5052929;28;20024;-68
2022/09/21 04:46:20;;;;;;;13.75;12.95;;;;;;;11.14;100.00;100714.63;5036980;28;20031;-67
2022/09/21 04:48:46;;;;;;;13.70;12.90;;;;;;;11.16;100.00;100725.88;5050333;28;20048;-69
2022/09/21 04:51:13;;;;;;;13.68;12.88;;;;;;;11.19;100.00;100724.72;5053398;28;20041;-70
2022/09/21 04:53:41;;;;;;;13.65;12.88;;;;;;;11.30;100.00;100733.13;5043644;28;20032;-69
2022/09/21 04:56:08;;;;;;;14.45;13.55;;;;;;;11.23;100.00;100732.16;5041770;28;20056;-69
2022/09/21 04:58:34;;;;;;;12.80;12.10;;;;;;;11.25;100.00;100732.84;5047104;28;20028;-68
2022/09/21 05:01:00;;;;;;;13.13;12.43;;;;;;;11.17;100.00;100732.88;5048993;28;20033;-68
2022/09/21 05:03:26;;;;;;;13.25;12.55;;;;;;;11.21;100.00;100739.47;5048463;28;20496;-68
2022/09/21 05:05:54;;;;;;;14.90;14.00;;;;;;;11.17;100.00;100727.56;5050830;28;20097;-69
2022/09/21 05:11:06;;;;;;;14.10;13.27;;;;;;;11.38;100.00;100742.03;5060966;28;20478;-68
2022/09/21 05:13:32;;;;;;;14.73;13.82;;;;;;;11.39;100.00;100741.06;5054668;28;20064;-69
2022/09/21 05:15:57;;;;;;;14.55;13.65;;;;;;;11.56;100.00;100750.59;5046357;28;20035;-68
2022/09/21 05:18:23;;;;;;;13.52;12.73;;;;;;;11.61;100.00;100741.09;5054066;28;20035;-68
2022/09/21 05:20:56;;;;;;;13.73;12.93;;;;;;;11.69;100.00;100739.38;5057596;28;20136;-69
2022/09/21 05:23:22;;;;;;;13.85;13.05;;;;;;;11.76;100.00;100743.00;5055932;28;20056;-67
2022/09/21 05:25:48;;;;;;;13.50;12.70;;;;;;;11.77;100.00;100742.81;5048952;28;20028;-68
2022/09/21 05:28:15;;;;;;;13.95;13.15;;;;;;;11.85;100.00;100739.28;5055973;28;20102;-68
2022/09/21 05:30:43;;;;;;;13.20;12.50;;;;;;;11.81;100.00;100722.84;5048409;28;20075;-69
2022/09/21 05:33:13;;;;;;;13.18;12.48;;;;;;;11.82;100.00;100737.81;5059349;28;20028;-69
2022/09/21 05:36:00;;;;;;;13.70;12.90;;;;;;;12.04;100.00;100744.09;5047437;28;20025;-69
2022/09/21 05:38:26;;;;;;;14.05;13.25;;;;;;;12.02;100.00;100742.66;5049461;28;20036;-68
2022/09/21 05:40:52;;;;;;;13.55;12.77;;;;;;;12.25;100.00;100737.28;5058701;28;20032;-69
2022/09/21 05:43:18;;;;;;;13.30;12.60;;;;;;;12.39;100.00;100747.13;5063275;28;20031;-70
2022/09/21 05:45:46;;;;;;;13.30;12.60;;;;;;;12.08;100.00;100745.41;5049539;28;20045;-68
2022/09/21 05:48:45;;;;;;;13.73;12.93;;;;;;;11.68;100.00;100753.66;5068767;28;20049;-70
2022/09/21 05:51:49;;;;;;;14.32;13.52;;;;;;;12.18;100.00;100755.78;5044075;28;20029;-68
2022/09/21 05:54:34;;;;;;;12.98;12.27;;;;;;;12.25;100.00;100745.28;5048088;28;20044;-69
2022/09/21 05:57:14;;;;;;;12.40;11.80;;;;;;;12.35;100.00;100749.34;5056529;28;20120;-70
2022/09/21 06:00:00;;;;;;;14.05;13.25;;;;;;;12.56;100.00;100761.09;5066755;28;20095;-70
2022/09/21 06:03:01;;;;;;;14.10;13.30;;;;;;;12.45;100.00;100752.56;5045088;28;20036;-69
2022/09/21 06:05:26;;;;;;;13.68;12.90;;;;;;;12.33;100.00;100761.16;5043873;28;20581;-67
2022/09/21 06:07:52;;;;;;;13.43;12.73;;;;;;;12.47;100.00;100762.19;5053572;28;20032;-69
2022/09/21 06:10:19;;;;;;;15.07;14.13;;;;;;;12.57;100.00;100760.94;5064159;28;20387;-77
2022/09/21 06:12:44;;;;;;;13.85;13.05;;;;;;;12.37;100.00;100768.59;5056086;28;20082;-71
2022/09/21 06:15:12;;;;;;;13.95;13.15;;;;;;;12.54;100.00;100771.94;5043251;28;20041;-71
2022/09/21 06:17:38;;;;;;;14.27;13.48;;;;;;;12.24;100.00;100765.72;5047902;28;20057;-72
2022/09/21 06:20:06;;;;;;;14.32;13.48;;;;;;;12.03;100.00;100768.22;5056274;28;20032;-72
2022/09/21 06:22:31;;;;;;;14.90;14.00;;;;;;;12.24;100.00;100775.53;5046465;28;20021;-71
2022/09/21 06:24:57;;;;;;;14.25;13.45;;;;;;;12.16;100.00;100777.25;5044667;28;20087;-69
2022/09/21 06:27:22;;;;;;;14.15;13.35;;;;;;;12.36;100.00;100782.91;5046607;28;20029;-72
2022/09/21 06:29:48;;;;;;;14.10;13.30;;;;;;;12.35;100.00;100775.94;5045992;28;20067;-71
2022/09/21 06:32:13;;;;;;;13.10;12.40;;;;;;;12.28;100.00;100783.00;5044500;28;20392;-72
2022/09/21 06:34:39;;;;;;;13.35;12.65;;;;;;;12.36;100.00;100766.97;5047386;28;20101;-71
2022/09/21 06:37:04;;;;;;;12.68;12.07;;;;;;;12.32;100.00;100780.78;5041318;28;20025;-72
2022/09/21 06:39:30;;;;;;;13.85;13.05;;;;;;;12.32;100.00;100788.75;5047928;28;20028;-73
2022/09/21 06:41:56;;;;;;;13.30;12.60;;;;;;;12.42;100.00;100786.69;5043527;28;20036;-70
2022/09/21 06:44:21;;;;;;;15.60;14.60;;;;;;;12.67;100.00;100787.28;5049443;28;20021;-72
2022/09/21 06:46:47;;;;;;;13.25;12.55;;;;;;;12.36;100.00;100793.56;5045838;28;20103;-69
2022/09/21 06:49:12;;;;;;;13.50;12.75;;;;;;;12.70;100.00;100773.59;5043795;28;20028;-71
2022/09/21 06:51:38;;;;;;;13.23;12.52;;;;;;;12.96;100.00;100787.28;5044795;28;20059;-73
2022/09/21 06:54:04;;;;;;;13.90;13.10;;;;;;;13.11;100.00;100791.78;5051831;28;20049;-71
2022/09/21 06:56:30;;;;;;;12.60;12.00;;;;;;;12.91;100.00;100788.84;5046996;28;20050;-71
2022/09/21 06:58:56;;;;;;;13.18;12.48;;;;;;;13.30;100.00;100783.28;5065141;28;20120;-71
2022/09/21 07:01:22;;;;;;;13.02;12.32;;;;;;;13.36;100.00;100753.19;5052745;28;20025;-70
2022/09/21 07:03:50;;;;;;;14.30;13.50;;;;;;;13.48;100.00;100782.84;5047751;28;20039;-71
2022/09/21 07:06:17;;;;;;;12.88;12.18;;;;;;;13.57;100.00;100786.22;5053953;28;20083;-72
2022/09/21 07:08:43;;;;;;;13.30;12.60;;;;;;;13.67;100.00;100784.94;5041562;28;20021;-71
2022/09/21 07:11:09;;;;;;;13.60;12.90;;;;;;;13.82;100.00;100798.22;5060944;28;20381;-73
2022/09/21 07:13:35;;;;;;;12.90;12.20;;;;;;;13.68;100.00;100772.44;5053032;28;20025;-72
2022/09/21 07:16:08;;;;;;;14.43;13.57;;;;;;;13.87;100.00;100787.78;5053969;28;20162;-76
2022/09/21 07:18:35;;;;;;;13.10;12.40;;;;;;;13.81;100.00;100796.56;5045769;28;20472;-71
2022/09/21 07:21:05;;;;;;;13.00;12.30;;;;;;;14.40;100.00;100787.47;5040226;28;20042;-70
2022/09/21 07:23:31;;;;;;;13.35;12.65;;;;;;;14.84;100.00;100797.88;5048917;28;20075;-72
2022/09/21 07:26:01;;;;;;;13.70;13.00;;;;;;;15.15;100.00;100790.25;5039236;28;20576;-72
2022/09/21 07:28:27;;;;;;;14.30;13.50;;;;;;;15.21;100.00;100796.66;5054713;28;20056;-71
2022/09/21 07:30:52;;;;;;;13.02;12.32;;;;;;;16.03;100.00;100785.00;5048805;28;20107;-73
2022/09/21 07:33:17;;;;;;;13.10;12.40;;;;;;;15.39;100.00;100788.06;5048333;28;20032;-74
2022/09/21 07:35:55;;;;;;;14.00;13.20;;;;;;;15.00;100.00;100783.38;5049203;28;20395;-73
2022/09/21 07:38:20;;;;;;;13.27;12.57;;;;;;;14.77;100.00;100781.00;5049753;28;20025;-72
2022/09/21 07:40:46;;;;;;;13.07;12.38;;;;;;;14.67;100.00;100791.16;5042849;28;20738;-71
2022/09/21 07:43:11;;;;;;;14.77;13.88;;;;;;;14.97;100.00;100787.25;5038835;28;20064;-71
2022/09/21 07:45:37;;;;;;;13.20;12.50;;;;;;;14.67;100.00;100778.66;5048655;28;20502;-70
2022/09/21 07:48:07;;;;;;;14.13;13.32;;;;;;;14.32;100.00;100791.06;5052402;28;20099;-71
2022/09/21 07:50:33;;;;;;;13.13;12.43;;;;;;;14.28;100.00;100785.31;5042970;28;20401;-73
2022/09/21 07:53:00;;;;;;;13.95;13.15;;;;;;;14.54;100.00;100792.75;5041709;28;20036;-72
2022/09/21 07:55:26;;;;;;;13.05;12.35;;;;;;;14.76;100.00;100790.00;5047568;28;20017;-72
2022/09/21 08:00:37;;;;;;;13.03;12.33;;;;;;;15.24;100.00;100798.09;5046833;28;20511;-75
2022/09/21 08:03:03;;;;;;;12.82;12.13;;;;;;;15.17;100.00;100800.72;5045737;28;20112;-72
2022/09/21 08:05:29;;;;;;;12.43;11.82;;;;;;;15.32;100.00;100797.91;5047470;28;20098;-73
2022/09/21 08:07:55;;;;;;;12.63;12.00;;;;;;;15.76;100.00;100797.47;5063772;28;20047;-72
2022/09/21 08:10:22;;;;;;;16.98;15.88;;;;;;;15.39;100.00;100798.78;5046813;28;20028;-74
2022/09/21 08:12:48;;;;;;;14.00;13.20;;;;;;;14.92;100.00;100797.72;5049881;28;20029;-74
2022/09/21 08:15:13;;;;;;;13.82;13.02;;;;;;;14.27;100.00;100797.00;5042457;28;20462;-73
2022/09/21 08:17:39;;;;;;;13.18;12.48;;;;;;;14.44;100.00;100802.06;5053193;28;20342;-72
2022/09/21 08:20:05;;;;;;;16.67;15.57;;;;;;;14.71;100.00;100797.78;5046679;28;20037;-69
2022/09/21 08:22:31;;;;;;;13.32;12.63;;;;;;;14.61;100.00;100795.44;5047219;28;20037;-72
2022/09/21 08:24:56;;;;;;;13.40;12.70;;;;;;;15.21;100.00;100804.66;5050770;28;20487;-71
2022/09/21 08:27:24;;;;;;;13.23;12.52;;;;;;;15.59;100.00;100799.69;5042609;28;20551;-72
2022/09/21 08:29:50;;;;;;;13.20;12.50;;;;;;;16.29;100.00;100801.06;5047376;28;20017;-72
2022/09/21 08:32:15;;;;;;;13.00;12.30;;;;;;;17.02;100.00;100794.81;5050230;28;20473;-71
2022/09/21 08:34:41;;;;;;;12.40;11.80;;;;;;;16.90;100.00;100788.50;5045473;28;20103;-72
2022/09/21 08:37:06;;;;;;;12.68;12.07;;;;;;;16.37;100.00;100794.66;5047059;28;20625;-71
2022/09/21 08:39:32;;;;;;;12.50;11.90;;;;;;;16.00;100.00;100777.34;5056930;28;20039;-71
2022/09/21 08:42:07;;;;;;;12.85;12.15;;;;;;;16.42;100.00;100792.22;5058328;28;20060;-71
2022/09/21 08:44:48;;;;;;;12.50;11.90;;;;;;;15.77;100.00;100784.94;5040493;28;20040;-72
2022/09/21 08:47:39;;;;;;;12.63;12.02;;;;;;;16.32;100.00;100777.59;5046201;28;20040;-70
2022/09/21 08:50:21;;;;;;;12.70;12.10;;;;;;;16.71;100.00;100792.84;5050634;28;20037;-72
2022/09/21 08:52:49;;;;;;;12.30;11.70;;;;;;;16.58;100.00;100783.75;5052943;28;20020;-72
2022/09/21 08:55:19;;;;;;;12.85;12.15;;;;;;;16.26;100.00;100785.41;5046818;28;20032;-69
2022/09/21 08:57:45;;;;;;;13.85;13.05;;;;;;;16.25;100.00;100783.78;5058512;28;20052;-71
2022/09/21 09:00:18;;;;;;;13.32;12.63;;;;;;;16.01;100.00;100787.03;5046722;28;20064;-72
2022/09/21 09:03:08;;;;;;;12.43;11.82;;;;;;;16.11;100.00;100782.13;5039302;28;21308;-71
2022/09/21 09:06:08;;;;;;;13.10;12.40;;;;;;;16.04;100.00;100778.59;5050212;28;20028;-73
2022/09/21 09:08:54;;;;;;;13.88;13.10;;;;;;;16.40;100.00;100780.06;5051188;28;20029;-71
2022/09/21 09:11:31;;;;;;;12.70;12.10;;;;;;;16.11;100.00;100779.44;5056407;28;20023;-69
2022/09/21 09:14:18;;;;;;;13.32;12.63;;;;;;;16.51;100.00;100777.56;5033148;28;20052;-72
2022/09/21 09:17:19;;;;;;;13.27;12.57;;;;;;;16.10;100.00;100768.94;5040195;28;20071;-72
2022/09/21 09:20:08;;;;;;;13.10;12.40;;;;;;;15.53;100.00;100763.03;5043489;28;20119;-73
2022/09/21 09:22:54;;;;;;;13.40;12.70;;;;;;;16.11;100.00;100752.69;5035761;28;20052;-71
2022/09/21 09:25:23;;;;;;;13.73;13.00;;;;;;;16.43;100.00;100772.44;5050799;28;20123;-71
2022/09/21 09:28:14;;;;;;;12.30;11.70;;;;;;;17.04;100.00;100750.72;5047182;28;20017;-73
2022/09/21 09:30:39;;;;;;;12.77;12.13;;;;;;;17.27;100.00;100754.75;5045594;28;20024;-74
2022/09/21 09:33:18;;;;;;;14.30;13.50;;;;;;;17.82;100.00;100763.97;5045862;28;20086;-75
2022/09/21 09:35:51;;;;;;;13.50;12.80;;;;;;;17.55;100.00;100752.56;5044334;28;20081;-74
2022/09/21 09:38:31;;;;;;;13.40;12.70;;;;;;;17.46;100.00;100736.91;5054529;28;20036;-73
2022/09/21 09:41:21;;;;;;;14.95;14.05;;;;;;;16.80;100.00;100746.03;5042279;28;20386;-70
2022/09/21 09:44:05;;;;;;;14.38;13.57;;;;;;;17.05;100.00;100740.81;5043842;28;20025;-69
2022/09/21 09:47:07;;;;;;;14.93;14.02;;;;;;;17.48;100.00;100742.88;5040815;28;20029;-69
2022/09/21 09:49:53;;;;;;;13.57;12.88;;;;;;;17.52;100.00;100744.91;5052829;28;20048;-69
2022/09/21 09:52:18;;;;;;;13.60;12.90;;;;;;;17.58;100.00;100738.69;5033973;28;20032;-71
2022/09/21 09:54:44;;;;;;;15.32;14.43;;;;;;;17.23;100.00;100726.72;5047419;28;20033;-70
2022/09/21 09:57:10;;;;;;;13.52;12.82;;;;;;;18.48;100.00;100741.13;5047411;28;20025;-70
2022/09/21 09:59:43;;;;;;;13.95;13.20;;;;;;;18.37;100.00;100744.56;5039294;28;20112;-70
2022/09/21 10:02:30;;;;;;;13.07;12.38;;;;;;;18.63;100.00;100741.59;5045941;28;20029;-69
2022/09/21 10:05:07;;;;;;;13.32;12.63;;;;;;;17.53;100.00;100714.38;5039659;28;20033;-70
2022/09/21 10:07:34;;;;;;;12.60;12.00;;;;;;;17.84;100.00;100734.22;5043078;28;20032;-70
2022/09/21 10:10:00;;;;;;;13.20;12.50;;;;;;;17.34;100.00;100713.47;5042419;28;20031;-71
2022/09/21 10:12:26;;;;;;;13.18;12.48;;;;;;;17.16;100.00;100723.22;5059313;28;20108;-70
2022/09/21 10:14:55;;;;;;;15.05;14.15;;;;;;;17.03;100.00;100732.97;5049642;28;20078;-71
2022/09/21 10:17:23;;;;;;;14.73;13.93;;;;;;;16.75;100.00;100727.09;5041891;28;20036;-70
2022/09/21 10:19:59;;;;;;;13.40;12.70;;;;;;;16.65;100.00;100737.38;5029922;28;20060;-72
2022/09/21 10:22:24;;;;;;;13.50;12.80;;;;;;;16.56;100.00;100720.72;5043299;28;20030;-70
2022/09/21 10:24:53;;;;;;;13.00;12.30;;;;;;;16.59;100.00;100737.19;5057191;28;20024;-72
2022/09/21 10:27:41;;;;;;;13.07;12.38;;;;;;;16.26;100.00;100737.22;5036306;28;20040;-69
2022/09/21 10:30:34;;;;;;;14.13;13.32;;;;;;;16.43;100.00;100739.47;5061434;28;20021;-69
2022/09/21 10:33:00;;;;;;;13.73;13.02;;;;;;;16.82;100.00;100736.78;5043043;28;20048;-71
2022/09/21 10:35:26;;;;;;;13.13;12.43;;;;;;;17.02;100.00;100717.09;5051976;28;20087;-69
2022/09/21 10:38:18;;;;;;;14.15;13.35;;;;;;;17.29;100.00;100729.38;5051307;28;20036;-70
2022/09/21 10:40:45;;;;;;;13.32;12.63;;;;;;;17.08;100.00;100725.13;5054661;28;20988;-71
2022/09/21 10:43:43;;;;;;;13.07;12.38;;;;;;;17.23;100.00;100711.44;5047049;28;20020;-71
2022/09/21 10:46:09;;;;;;;13.98;13.18;;;;;;;16.72;100.00;100719.47;5019849;28;20072;-71
2022/09/21 10:48:35;;;;;;;13.20;12.50;;;;;;;16.53;100.00;100716.59;5055329;28;20045;-69
2022/09/21 10:51:02;;;;;;;13.60;12.90;;;;;;;16.48;100.00;100718.25;5060642;28;20162;-69
2022/09/21 10:53:29;;;;;;;13.20;12.50;;;;;;;16.63;100.00;100726.06;5051625;28;20115;-70
2022/09/21 10:56:00;;;;;;;13.30;12.60;;;;;;;16.80;100.00;100714.69;5054390;28;20104;-70
2022/09/21 10:58:28;;;;;;;13.88;13.10;;;;;;;16.88;100.00;100718.19;5057196;28;20079;-71
2022/09/21 11:00:55;;;;;;;14.70;13.90;;;;;;;16.34;100.00;100719.31;5049134;28;20033;-70
2022/09/21 11:03:40;;;;;;;13.88;13.10;;;;;;;16.37;100.00;100709.00;5054899;28;20029;-69
2022/09/21 11:06:13;;;;;;;13.35;12.65;;;;;;;16.34;100.00;100711.28;5056726;28;20031;-71
2022/09/21 11:09:11;;;;;;;14.13;13.32;;;;;;;17.12;100.00;100688.81;5054860;28;20029;-71
2022/09/21 11:12:25;;;;;;;13.43;12.73;;;;;;;17.72;100.00;100706.47;5054184;28;20021;-73
2022/09/21 11:15:09;;;;;;;13.25;12.55;;;;;;;17.18;100.00;100699.72;5003106;28;20061;-71
2022/09/21 11:17:37;;;;;;;12.88;12.18;;;;;;;17.01;100.00;100702.06;5047083;28;20044;-70
2022/09/21 11:20:27;;;;;;;13.40;12.70;;;;;;;17.26;100.00;100699.47;5055081;28;20099;-69
2022/09/21 11:23:26;;;;;;;14.15;13.35;;;;;;;17.30;100.00;100688.09;5058158;28;20112;-69
2022/09/21 11:25:59;;;;;;;13.30;12.60;;;;;;;17.15;100.00;100686.75;5059613;28;20030;-70
2022/09/21 11:28:35;;;;;;;13.68;12.98;;;;;;;17.09;100.00;100677.69;5063639;28;20115;-70